Time;durP1;ratioP1;P1;durP2;ratioP2;P2;SDS_P1;SDS_P2;PMS_P1;PMS_P2;Temp;Humidity;BMP_temperature;BMP_pressure;BME280_temperature;BME280_humidity;BME280_pressure;Samples;Min_cycle;Max_cycle;Signal;HPM_P1;HPM_P2
2022/01/31 00:00:24;;;;;;;2.07;1.60;;;;;;;1.16;100.00;96743.19;5032395;28;20233;-83
2022/01/31 00:02:51;;;;;;;1.57;1.40;;;;;;;0.97;100.00;96724.84;5035557;28;20217;-86
2022/01/31 00:05:18;;;;;;;2.53;1.63;;;;;;;0.95;100.00;96724.16;5049958;28;20245;-86
2022/01/31 00:07:46;;;;;;;2.37;1.73;;;;;;;0.90;100.00;96715.84;5037713;28;20229;-84
2022/01/31 00:10:16;;;;;;;2.23;1.50;;;;;;;0.82;100.00;96713.16;5057616;28;20216;-84
2022/01/31 00:12:53;;;;;;;2.13;1.57;;;;;;;0.77;100.00;96695.88;5037047;28;20224;-85
2022/01/31 00:15:20;;;;;;;2.40;1.67;;;;;;;0.77;100.00;96710.19;5038358;28;20216;-83
2022/01/31 00:17:47;;;;;;;2.60;1.60;;;;;;;0.72;100.00;96700.00;5045888;28;20234;-83
2022/01/31 00:20:14;;;;;;;1.60;1.50;;;;;;;0.68;100.00;96694.16;5052737;28;20205;-83
2022/01/31 00:22:41;;;;;;;3.33;2.00;;;;;;;0.60;100.00;96686.16;5052202;28;20259;-83
2022/01/31 00:25:09;;;;;;;3.03;1.90;;;;;;;0.54;100.00;96667.38;5032876;28;20199;-83
2022/01/31 00:27:38;;;;;;;1.93;1.60;;;;;;;0.55;100.00;96669.06;5044886;28;20273;-83
2022/01/31 00:30:07;;;;;;;3.50;2.00;;;;;;;0.51;100.00;96657.91;5044549;28;20241;-84
2022/01/31 00:32:35;;;;;;;1.73;1.50;;;;;;;0.49;100.00;96661.72;5033961;28;20245;-84
2022/01/31 00:35:02;;;;;;;1.87;1.70;;;;;;;0.53;100.00;96645.28;5052017;28;20214;-83
2022/01/31 00:37:29;;;;;;;2.37;1.60;;;;;;;0.42;100.00;96642.13;5044684;28;20291;-83
2022/01/31 00:39:56;;;;;;;3.73;2.30;;;;;;;0.36;100.00;96628.47;5027867;28;20526;-83
2022/01/31 00:42:26;;;;;;;4.47;3.20;;;;;;;0.28;100.00;96636.41;5038293;28;20199;-85
2022/01/31 00:44:58;;;;;;;4.03;2.90;;;;;;;0.33;100.00;96623.50;5049081;28;20208;-84
2022/01/31 00:47:29;;;;;;;3.23;2.00;;;;;;;0.22;100.00;96607.84;5038173;28;20249;-85
2022/01/31 00:50:06;;;;;;;2.73;2.10;;;;;;;0.22;100.00;96615.81;5039532;28;20222;-82
2022/01/31 00:52:33;;;;;;;2.80;2.30;;;;;;;0.22;100.00;96609.66;5037887;28;20219;-83
2022/01/31 00:55:01;;;;;;;2.47;1.67;;;;;;;0.23;100.00;96616.63;5046062;28;20206;-84
2022/01/31 00:57:28;;;;;;;1.70;1.60;;;;;;;0.17;100.00;96601.34;5032475;28;20200;-84
2022/01/31 00:59:57;;;;;;;5.03;1.67;;;;;;;0.15;100.00;96609.47;5039208;28;20323;-82
2022/01/31 01:02:26;;;;;;;2.97;1.67;;;;;;;0.10;100.00;96602.94;5042297;28;20337;-83
2022/01/31 01:04:54;;;;;;;1.87;1.63;;;;;;;0.12;100.00;96593.00;5038850;28;20230;-83
2022/01/31 01:07:21;;;;;;;2.20;1.63;;;;;;;0.14;100.00;96591.03;5045527;28;20276;-82
2022/01/31 01:09:49;;;;;;;4.47;1.80;;;;;;;0.17;100.00;96602.16;5054129;28;20300;-83
2022/01/31 01:12:18;;;;;;;4.73;1.57;;;;;;;0.14;100.00;96594.53;5036577;28;20213;-82
2022/01/31 01:14:46;;;;;;;1.60;1.50;;;;;;;0.20;100.00;96585.06;5035865;28;20242;-86
2022/01/31 01:17:15;;;;;;;3.07;1.83;;;;;;;0.24;100.00;96586.44;5028581;28;20208;-83
2022/01/31 01:19:43;;;;;;;1.80;1.20;;;;;;;0.29;100.00;96578.81;5051205;28;20205;-84
2022/01/31 01:22:11;;;;;;;2.50;1.53;;;;;;;0.19;100.00;96578.09;5044089;28;20296;-83
2022/01/31 01:24:38;;;;;;;2.33;1.40;;;;;;;0.19;100.00;96581.59;5032085;28;20252;-83
2022/01/31 01:27:08;;;;;;;1.97;1.50;;;;;;;0.24;100.00;96578.47;5036082;28;20225;-83
2022/01/31 01:29:35;;;;;;;1.77;1.43;;;;;;;0.25;100.00;96578.31;5045298;28;20212;-84
2022/01/31 01:32:03;;;;;;;1.90;1.70;;;;;;;0.26;100.00;96568.50;5054002;28;20293;-83
2022/01/31 01:34:34;;;;;;;3.30;1.70;;;;;;;0.22;100.00;96562.69;5035773;28;20210;-85
2022/01/31 01:37:03;;;;;;;1.67;1.57;;;;;;;0.22;100.00;96554.72;5039484;28;20209;-84
2022/01/31 01:39:31;;;;;;;1.50;1.40;;;;;;;0.21;100.00;96544.25;5053813;28;20206;-83
2022/01/31 01:41:58;;;;;;;2.13;1.43;;;;;;;0.13;100.00;96550.38;5032877;28;20225;-83
2022/01/31 01:44:46;;;;;;;1.53;1.40;;;;;;;0.15;100.00;96547.56;5032243;28;20260;-83
2022/01/31 01:47:17;;;;;;;1.83;1.57;;;;;;;0.19;100.00;96548.88;5058332;28;20228;-83
2022/01/31 01:49:47;;;;;;;1.77;1.40;;;;;;;0.17;100.00;96542.94;5051562;28;20230;-82
2022/01/31 01:52:17;;;;;;;1.90;1.60;;;;;;;0.08;100.00;96535.94;5050088;28;20207;-83
2022/01/31 01:54:46;;;;;;;2.60;1.43;;;;;;;0.07;100.00;96537.75;5032371;28;20202;-83
2022/01/31 01:57:14;;;;;;;2.03;1.60;;;;;;;0.04;100.00;96518.66;5041112;28;20222;-83
2022/01/31 01:59:44;;;;;;;1.73;1.60;;;;;;;-0.01;100.00;96508.53;5052530;28;20334;-84
2022/01/31 02:02:29;;;;;;;4.03;1.50;;;;;;;-0.03;100.00;96500.72;5043629;28;20347;-84
2022/01/31 02:05:02;;;;;;;1.90;1.70;;;;;;;-0.07;100.00;96512.63;5051259;28;20193;-83
2022/01/31 02:07:40;;;;;;;2.37;1.50;;;;;;;0.10;100.00;96525.97;5042908;28;20260;-83
2022/01/31 02:10:10;;;;;;;1.40;1.10;;;;;;;0.10;100.00;96515.34;5045835;28;20202;-83
2022/01/31 02:12:43;;;;;;;1.37;1.13;;;;;;;-0.06;100.00;96501.03;5057043;28;20202;-82
2022/01/31 02:15:17;;;;;;;1.83;1.40;;;;;;;-0.12;100.00;96506.97;5039405;28;20214;-83
2022/01/31 02:18:02;;;;;;;1.00;0.90;;;;;;;-0.07;100.00;96493.22;5039482;28;20254;-84
2022/01/31 02:20:31;;;;;;;1.43;1.23;;;;;;;-0.16;100.00;96495.00;5051300;28;20210;-82
2022/01/31 02:23:01;;;;;;;1.83;1.27;;;;;;;-0.14;100.00;96497.50;5046646;28;20218;-83
2022/01/31 02:25:34;;;;;;;1.50;1.23;;;;;;;-0.10;100.00;96506.84;5053522;28;20633;-82
2022/01/31 02:28:24;;;;;;;1.93;1.23;;;;;;;-0.09;100.00;96506.69;5042471;28;20230;-82
2022/01/31 02:30:52;;;;;;;1.73;1.27;;;;;;;-0.11;100.00;96508.66;5038369;28;20203;-83
2022/01/31 02:33:19;;;;;;;1.33;1.10;;;;;;;-0.06;100.00;96526.75;5055665;28;20213;-83
2022/01/31 02:35:48;;;;;;;2.70;1.30;;;;;;;-0.18;100.00;96491.72;5035803;28;20206;-85
2022/01/31 02:38:16;;;;;;;2.17;1.30;;;;;;;-0.13;100.00;96489.41;5048961;28;20209;-86
2022/01/31 02:40:51;;;;;;;1.43;1.20;;;;;;;-0.08;100.00;96499.50;5031384;28;20207;-83
2022/01/31 02:43:21;;;;;;;1.20;1.10;;;;;;;-0.11;100.00;96482.13;5042734;28;20211;-83
2022/01/31 02:45:49;;;;;;;1.17;1.00;;;;;;;-0.09;100.00;96503.19;5046981;28;20208;-83
2022/01/31 02:48:20;;;;;;;1.57;1.13;;;;;;;-0.01;100.00;96500.56;5041662;28;20377;-84
2022/01/31 02:50:47;;;;;;;1.63;1.20;;;;;;;-0.01;100.00;96496.09;5052317;28;20321;-83
2022/01/31 02:53:24;;;;;;;1.07;0.97;;;;;;;-0.03;100.00;96478.66;5048784;28;20395;-82
2022/01/31 02:55:52;;;;;;;3.60;1.30;;;;;;;-0.05;100.00;96476.16;5034330;28;20198;-83
2022/01/31 02:58:22;;;;;;;2.10;1.10;;;;;;;-0.02;100.00;96478.50;5042531;28;20216;-85
2022/01/31 03:00:51;;;;;;;2.40;1.30;;;;;;;-0.06;100.00;96495.72;5035219;28;20256;-83
2022/01/31 03:03:42;;;;;;;1.27;1.17;;;;;;;-0.06;100.00;96489.56;5034552;28;20214;-83
2022/01/31 03:06:09;;;;;;;1.40;1.27;;;;;;;-0.04;100.00;96498.22;5036696;28;20237;-83
2022/01/31 03:08:38;;;;;;;1.93;1.40;;;;;;;-0.05;100.00;96486.78;5059623;28;20229;-83
2022/01/31 03:11:21;;;;;;;1.60;1.50;;;;;;;-0.02;100.00;96493.59;5030427;28;20207;-83
2022/01/31 03:13:55;;;;;;;1.43;1.23;;;;;;;-0.10;100.00;96478.47;5055575;28;20211;-82
2022/01/31 03:16:22;;;;;;;2.23;1.10;;;;;;;-0.14;100.00;96471.81;5045569;28;20210;-83
2022/01/31 03:19:08;;;;;;;3.60;1.50;;;;;;;-0.15;100.00;96456.88;5036747;28;20244;-85
2022/01/31 03:21:36;;;;;;;2.37;1.03;;;;;;;-0.24;100.00;96441.06;5050260;28;20221;-83
2022/01/31 03:24:05;;;;;;;1.73;1.00;;;;;;;-0.17;100.00;96437.63;5048774;28;20198;-83
2022/01/31 03:26:32;;;;;;;2.97;1.00;;;;;;;-0.14;100.00;96458.53;5043673;28;20218;-83
2022/01/31 03:28:59;;;;;;;1.47;1.10;;;;;;;0.04;100.00;96477.00;5051065;28;20321;-84
2022/01/31 03:31:26;;;;;;;0.80;0.80;;;;;;;0.17;100.00;96452.66;5055149;28;20199;-83
2022/01/31 03:33:55;;;;;;;1.13;1.00;;;;;;;0.20;100.00;96457.63;5054216;28;20205;-82
2022/01/31 03:36:23;;;;;;;0.90;0.90;;;;;;;0.38;100.00;96466.28;5051076;28;20241;-83
2022/01/31 03:38:51;;;;;;;1.10;1.00;;;;;;;0.45;100.00;96467.28;5036138;28;20276;-82
2022/01/31 03:41:22;;;;;;;1.13;1.03;;;;;;;0.50;100.00;96459.66;5039751;28;20206;-83
2022/01/31 03:43:50;;;;;;;2.40;0.90;;;;;;;0.56;100.00;96461.66;5052108;28;20217;-83
2022/01/31 03:46:17;;;;;;;1.73;1.00;;;;;;;0.56;100.00;96456.34;5055727;28;20213;-85
2022/01/31 03:48:45;;;;;;;1.23;1.13;;;;;;;0.60;100.00;96454.16;5053523;28;20222;-86
2022/01/31 03:51:33;;;;;;;1.73;1.07;;;;;;;0.49;100.00;96452.69;5035691;28;20233;-84
2022/01/31 03:54:01;;;;;;;1.20;1.10;;;;;;;0.54;100.00;96471.59;5038892;28;20200;-82
2022/01/31 03:56:29;;;;;;;0.90;0.87;;;;;;;0.54;100.00;96460.97;5046301;28;20210;-83
2022/01/31 03:59:05;;;;;;;1.17;0.90;;;;;;;0.58;100.00;96472.13;5029842;28;20214;-83
2022/01/31 04:01:33;;;;;;;1.97;1.20;;;;;;;0.56;100.00;96474.94;5059649;28;20237;-85
2022/01/31 04:04:00;;;;;;;1.10;1.00;;;;;;;0.64;100.00;96498.03;5039057;28;20214;-82
2022/01/31 04:06:27;;;;;;;1.00;0.90;;;;;;;0.70;100.00;96492.88;5036262;28;20222;-83
2022/01/31 04:08:54;;;;;;;1.20;1.00;;;;;;;0.77;100.00;96476.28;5043961;28;20222;-84
2022/01/31 04:11:21;;;;;;;1.50;1.00;;;;;;;0.68;100.00;96483.41;5035112;28;20205;-83
2022/01/31 04:13:50;;;;;;;1.77;1.00;;;;;;;0.60;100.00;96465.63;5035807;28;20289;-82
2022/01/31 04:16:17;;;;;;;0.80;0.80;;;;;;;0.59;100.00;96468.47;5039550;28;20210;-83
2022/01/31 04:18:44;;;;;;;1.00;0.93;;;;;;;0.61;100.00;96501.81;5048072;28;20209;-84
2022/01/31 04:21:12;;;;;;;0.83;0.83;;;;;;;0.66;100.00;96488.06;5041502;28;20228;-83
2022/01/31 04:23:39;;;;;;;1.00;0.90;;;;;;;0.70;100.00;96492.88;5043490;28;20212;-83
2022/01/31 04:26:11;;;;;;;1.00;0.90;;;;;;;0.75;100.00;96479.94;5036037;28;20211;-83
2022/01/31 04:28:44;;;;;;;0.87;0.87;;;;;;;0.75;100.00;96460.50;5030555;28;20241;-83
2022/01/31 04:31:26;;;;;;;1.10;1.00;;;;;;;0.78;100.00;96457.47;5034011;28;20289;-83
2022/01/31 04:33:53;;;;;;;1.77;0.97;;;;;;;0.84;100.00;96463.97;5042834;28;20300;-83
2022/01/31 04:36:21;;;;;;;0.90;0.90;;;;;;;0.85;100.00;96449.69;5039154;28;20221;-83
2022/01/31 04:38:50;;;;;;;1.10;1.00;;;;;;;0.89;100.00;96437.72;5037444;28;20215;-82
2022/01/31 04:41:17;;;;;;;0.90;0.80;;;;;;;0.92;100.00;96445.38;5035140;28;20215;-83
2022/01/31 04:43:47;;;;;;;1.37;0.90;;;;;;;1.00;100.00;96413.44;5037741;28;20210;-82
2022/01/31 04:46:16;;;;;;;0.80;0.80;;;;;;;1.02;100.00;96396.31;5037111;28;20214;-83
2022/01/31 04:48:43;;;;;;;1.27;1.17;;;;;;;1.05;100.00;96400.47;5034771;28;20250;-83
2022/01/31 04:51:11;;;;;;;3.40;1.00;;;;;;;1.19;100.00;96369.69;5034734;28;20207;-83
2022/01/31 04:53:38;;;;;;;1.90;1.00;;;;;;;1.19;100.00;96372.34;5029105;28;20214;-83
2022/01/31 04:56:05;;;;;;;1.33;1.00;;;;;;;1.20;100.00;96355.38;5040478;28;20217;-83
2022/01/31 04:58:33;;;;;;;1.23;1.13;;;;;;;1.24;100.00;96362.84;5032078;28;20235;-83
2022/01/31 05:01:01;;;;;;;1.80;1.30;;;;;;;1.27;100.00;96362.50;5041058;28;20266;-84
2022/01/31 05:03:30;;;;;;;1.30;1.07;;;;;;;1.32;100.00;96375.28;5030921;28;20205;-83
2022/01/31 05:05:57;;;;;;;0.90;0.90;;;;;;;1.35;100.00;96358.97;5039835;28;20239;-84
2022/01/31 05:08:27;;;;;;;0.93;0.90;;;;;;;1.43;100.00;96370.41;5046808;28;20218;-83
2022/01/31 05:10:54;;;;;;;1.10;1.00;;;;;;;1.47;100.00;96362.91;5045601;28;20256;-83
2022/01/31 05:13:21;;;;;;;1.67;1.50;;;;;;;1.54;100.00;96342.56;5037878;28;20474;-83
2022/01/31 05:15:53;;;;;;;2.17;1.37;;;;;;;1.49;100.00;96326.31;5041646;28;20202;-83
2022/01/31 05:18:20;;;;;;;1.30;1.17;;;;;;;1.51;100.00;96332.28;5042836;28;20205;-83
2022/01/31 05:20:49;;;;;;;1.43;1.33;;;;;;;1.49;100.00;96327.16;5035571;28;20325;-84
2022/01/31 05:23:16;;;;;;;2.27;1.67;;;;;;;1.45;100.00;96325.00;5031830;28;20225;-83
2022/01/31 05:25:43;;;;;;;2.80;1.63;;;;;;;1.45;100.00;96314.34;5041140;28;20202;-82
2022/01/31 05:28:10;;;;;;;3.50;1.70;;;;;;;1.46;100.00;96340.78;5041315;28;20231;-83
2022/01/31 05:30:37;;;;;;;2.37;1.87;;;;;;;1.48;100.00;96327.31;5036214;28;20259;-83
2022/01/31 05:33:05;;;;;;;2.93;2.10;;;;;;;1.45;100.00;96333.81;5032158;28;20224;-82
2022/01/31 05:35:32;;;;;;;6.43;3.00;;;;;;;1.42;100.00;96320.88;5036787;28;20228;-83
2022/01/31 05:38:00;;;;;;;2.80;1.50;;;;;;;1.46;100.00;96351.44;5036539;28;20224;-83
2022/01/31 05:40:28;;;;;;;8.87;3.77;;;;;;;1.47;100.00;96345.09;5036377;28;20264;-86
2022/01/31 05:42:55;;;;;;;6.60;2.87;;;;;;;1.47;100.00;96346.94;5041104;28;20217;-83
2022/01/31 05:45:22;;;;;;;6.43;1.93;;;;;;;1.53;100.00;96357.72;5034334;28;20214;-83
2022/01/31 05:47:49;;;;;;;1.40;1.20;;;;;;;1.56;100.00;96340.56;5035436;28;20211;-82
2022/01/31 05:50:16;;;;;;;4.50;1.83;;;;;;;1.57;100.00;96341.41;5030929;28;20229;-83
2022/01/31 05:52:44;;;;;;;4.10;2.20;;;;;;;1.52;100.00;96347.25;5047818;28;20217;-83
2022/01/31 05:55:13;;;;;;;3.60;1.70;;;;;;;1.49;100.00;96319.16;5041427;28;20213;-83
2022/01/31 05:57:42;;;;;;;2.60;1.70;;;;;;;1.53;100.00;96324.97;5039995;28;20209;-83
2022/01/31 06:00:10;;;;;;;2.60;1.87;;;;;;;1.63;100.00;96325.56;5037292;28;20283;-82
2022/01/31 06:02:39;;;;;;;2.40;2.10;;;;;;;1.64;100.00;96313.06;5037564;28;20276;-83
2022/01/31 06:05:07;;;;;;;2.87;2.00;;;;;;;1.61;100.00;96302.81;5054701;28;20196;-85
2022/01/31 06:07:35;;;;;;;4.20;2.57;;;;;;;1.65;100.00;96331.53;5053175;28;20237;-83
2022/01/31 06:10:03;;;;;;;2.93;2.20;;;;;;;1.67;100.00;96302.09;5030315;28;20225;-83
2022/01/31 06:12:32;;;;;;;3.57;2.50;;;;;;;1.78;100.00;96328.31;5052975;28;20209;-86
2022/01/31 06:14:59;;;;;;;2.87;2.17;;;;;;;1.80;100.00;96289.84;5030905;28;20199;-83
2022/01/31 06:17:26;;;;;;;3.73;2.67;;;;;;;1.76;100.00;96314.34;5048909;28;20213;-82
2022/01/31 06:19:53;;;;;;;3.63;2.73;;;;;;;1.79;100.00;96319.31;5036331;28;20210;-83
2022/01/31 06:22:20;;;;;;;4.07;2.87;;;;;;;1.81;100.00;96311.97;5057838;28;20220;-82
2022/01/31 06:24:47;;;;;;;2.43;2.03;;;;;;;1.76;100.00;96299.22;5035850;28;20249;-83
2022/01/31 06:27:23;;;;;;;2.83;2.13;;;;;;;1.69;100.00;96302.75;5030696;28;20217;-84
2022/01/31 06:29:51;;;;;;;2.47;2.20;;;;;;;1.71;100.00;96317.53;5049472;28;20225;-82
2022/01/31 06:32:27;;;;;;;4.20;2.90;;;;;;;1.65;100.00;96306.75;5033183;28;20202;-82
2022/01/31 06:34:56;;;;;;;3.37;2.57;;;;;;;1.63;100.00;96282.97;5036744;28;20205;-81
2022/01/31 06:37:23;;;;;;;4.53;2.40;;;;;;;1.70;100.00;96299.09;5055581;28;20270;-84
2022/01/31 06:39:50;;;;;;;3.27;2.40;;;;;;;1.69;100.00;96297.44;5040903;28;20297;-83
2022/01/31 06:42:17;;;;;;;3.73;2.40;;;;;;;1.70;100.00;96251.19;5046890;28;20235;-84
2022/01/31 06:44:45;;;;;;;2.87;2.50;;;;;;;1.77;100.00;96258.28;5057499;28;20197;-84
2022/01/31 06:47:13;;;;;;;2.67;2.20;;;;;;;1.74;100.00;96260.44;5050391;28;20202;-84
2022/01/31 06:49:40;;;;;;;4.17;2.27;;;;;;;1.70;100.00;96275.13;5036090;28;20294;-82
2022/01/31 06:52:08;;;;;;;3.30;2.50;;;;;;;1.67;100.00;96262.16;5044259;28;20215;-86
2022/01/31 06:54:35;;;;;;;4.27;2.40;;;;;;;1.67;100.00;96272.81;5032068;28;20277;-85
2022/01/31 06:57:04;;;;;;;2.90;2.50;;;;;;;1.68;100.00;96274.47;5037653;28;20210;-83
2022/01/31 06:59:31;;;;;;;2.73;2.10;;;;;;;1.68;100.00;96263.84;5056492;28;20203;-82
2022/01/31 07:01:58;;;;;;;2.73;2.30;;;;;;;1.66;100.00;96279.13;5045995;28;20210;-83
2022/01/31 07:04:27;;;;;;;4.03;2.50;;;;;;;1.66;100.00;96257.84;5039023;28;20523;-83
2022/01/31 07:06:54;;;;;;;3.10;2.47;;;;;;;1.70;100.00;96240.53;5052873;28;20234;-83
2022/01/31 07:09:22;;;;;;;3.40;2.60;;;;;;;1.70;100.00;96256.50;5036439;28;20868;-83
2022/01/31 07:11:55;;;;;;;3.50;2.93;;;;;;;1.71;100.00;96264.28;5054999;28;20207;-82
2022/01/31 07:14:31;;;;;;;4.90;3.20;;;;;;;1.70;100.00;96267.16;5046442;28;20226;-85
2022/01/31 07:17:00;;;;;;;6.50;4.23;;;;;;;1.68;100.00;96285.13;5041491;28;20246;-83
2022/01/31 07:19:31;;;;;;;8.47;4.87;;;;;;;1.68;100.00;96285.13;5040922;28;20205;-83
2022/01/31 07:21:58;;;;;;;11.83;4.90;;;;;;;1.67;100.00;96278.13;5041402;28;20210;-85
2022/01/31 07:24:43;;;;;;;11.47;4.57;;;;;;;1.62;100.00;96285.81;5047514;28;20212;-82
2022/01/31 07:27:10;;;;;;;8.10;4.73;;;;;;;1.70;100.00;96267.94;5053443;28;20326;-83
2022/01/31 07:29:38;;;;;;;10.73;4.77;;;;;;;1.68;100.00;96285.13;5040047;28;20227;-84
2022/01/31 07:32:09;;;;;;;10.97;5.17;;;;;;;1.62;100.00;96277.81;5035942;28;20217;-85
2022/01/31 07:34:39;;;;;;;7.43;4.40;;;;;;;1.63;100.00;96269.66;5035651;28;20234;-83
2022/01/31 07:37:06;;;;;;;5.23;4.47;;;;;;;1.69;100.00;96287.63;5046806;28;20216;-83
2022/01/31 07:39:34;;;;;;;6.90;4.73;;;;;;;1.70;100.00;96280.47;5038193;28;20270;-82
2022/01/31 07:42:02;;;;;;;7.20;4.93;;;;;;;1.78;100.00;96257.28;5032611;28;20210;-82
2022/01/31 07:44:29;;;;;;;7.43;4.80;;;;;;;1.82;100.00;96273.69;5057043;28;20202;-82
2022/01/31 07:46:56;;;;;;;7.67;5.87;;;;;;;2.00;100.00;96284.06;5047100;28;20249;-83
2022/01/31 07:49:23;;;;;;;8.87;6.17;;;;;;;2.15;100.00;96259.09;5033378;28;20254;-84
2022/01/31 07:51:54;;;;;;;10.37;6.77;;;;;;;2.38;100.00;96266.25;5050995;28;20249;-83
2022/01/31 07:54:21;;;;;;;10.30;6.83;;;;;;;2.43;100.00;96296.66;5036330;28;20352;-83
2022/01/31 07:56:48;;;;;;;8.37;5.77;;;;;;;2.54;100.00;96292.72;5057980;28;20230;-84
2022/01/31 07:59:16;;;;;;;8.67;6.37;;;;;;;2.52;100.00;96300.06;5043781;28;20220;-83
2022/01/31 08:01:43;;;;;;;5.77;4.53;;;;;;;2.47;100.00;96297.94;5040663;28;20194;-84
2022/01/31 08:04:10;;;;;;;5.73;4.53;;;;;;;2.41;100.00;96274.69;5051354;28;20346;-83
2022/01/31 08:06:38;;;;;;;6.60;4.60;;;;;;;2.38;100.00;96299.06;5040618;28;20232;-84
2022/01/31 08:09:06;;;;;;;7.40;4.97;;;;;;;2.40;100.00;96297.00;5049243;28;20276;-83
2022/01/31 08:11:35;;;;;;;6.73;4.90;;;;;;;2.41;100.00;96288.00;5043409;28;20289;-83
2022/01/31 08:14:06;;;;;;;6.60;4.97;;;;;;;2.43;100.00;96277.19;5039793;28;20257;-83
2022/01/31 08:16:33;;;;;;;8.77;5.13;;;;;;;2.55;100.00;96275.75;5050386;28;20221;-83
2022/01/31 08:19:01;;;;;;;8.53;6.03;;;;;;;2.65;100.00;96246.94;5043503;28;20281;-82
2022/01/31 08:21:28;;;;;;;6.77;4.63;;;;;;;2.54;100.00;96245.59;5033301;28;20210;-83
2022/01/31 08:23:55;;;;;;;7.93;4.80;;;;;;;2.45;100.00;96229.88;5028133;28;20207;-83
2022/01/31 08:26:24;;;;;;;7.20;4.90;;;;;;;2.41;100.00;96215.25;5047848;28;20222;-83
2022/01/31 08:28:56;;;;;;;7.27;4.73;;;;;;;2.42;100.00;96188.41;5059603;28;20217;-86
2022/01/31 08:31:29;;;;;;;8.03;5.60;;;;;;;2.48;100.00;96193.00;5053246;28;20198;-83
2022/01/31 08:34:07;;;;;;;6.47;4.83;;;;;;;2.54;100.00;96159.47;5050854;28;20253;-83
2022/01/31 08:36:35;;;;;;;8.60;5.77;;;;;;;2.54;100.00;96130.97;5050813;28;20338;-83
2022/01/31 08:39:08;;;;;;;13.23;5.77;;;;;;;2.58;100.00;96123.44;5058827;28;20210;-83
2022/01/31 08:41:39;;;;;;;8.30;5.87;;;;;;;2.54;100.00;96117.66;5053594;28;20224;-86
2022/01/31 08:44:07;;;;;;;10.33;7.03;;;;;;;2.59;100.00;96101.09;5040031;28;20208;-83
2022/01/31 08:46:34;;;;;;;9.10;6.43;;;;;;;2.61;100.00;96096.41;5043962;28;20210;-83
2022/01/31 08:49:01;;;;;;;10.93;6.63;;;;;;;2.61;100.00;96078.56;5057518;28;20210;-83
2022/01/31 08:51:28;;;;;;;8.13;6.27;;;;;;;2.76;100.00;96077.69;5036666;28;20216;-84
2022/01/31 08:53:56;;;;;;;8.57;6.13;;;;;;;2.76;100.00;96059.88;5058170;28;20209;-83
2022/01/31 08:56:23;;;;;;;11.80;6.03;;;;;;;2.83;100.00;96073.25;5038853;28;20210;-83
2022/01/31 08:58:52;;;;;;;7.23;5.57;;;;;;;2.85;100.00;96080.06;5041692;28;20264;-83
2022/01/31 09:01:22;;;;;;;8.30;6.37;;;;;;;2.90;100.00;96090.97;5029887;28;20213;-83
2022/01/31 09:04:05;;;;;;;9.20;6.23;;;;;;;2.93;100.00;96109.28;5052451;28;20220;-83
2022/01/31 09:06:34;;;;;;;10.00;6.50;;;;;;;2.97;100.00;96112.41;5038126;28;20245;-83
2022/01/31 09:09:06;;;;;;;6.90;5.80;;;;;;;3.04;100.00;96083.97;5053165;28;20202;-84
2022/01/31 09:11:35;;;;;;;9.97;6.30;;;;;;;3.17;100.00;96075.25;5038279;28;20212;-86
2022/01/31 09:14:05;;;;;;;7.50;5.83;;;;;;;3.20;100.00;96075.72;5046192;28;20288;-83
2022/01/31 09:16:32;;;;;;;8.37;5.80;;;;;;;3.20;100.00;96072.22;5048012;28;20202;-83
2022/01/31 09:19:00;;;;;;;8.47;5.67;;;;;;;3.22;100.00;96068.34;5045471;28;20202;-85
2022/01/31 09:21:27;;;;;;;9.23;5.60;;;;;;;3.33;100.00;96064.31;5028357;28;20234;-83
2022/01/31 09:23:54;;;;;;;8.60;6.27;;;;;;;3.33;100.00;96045.63;5032299;28;20227;-83
2022/01/31 09:26:23;;;;;;;9.80;6.43;;;;;;;3.30;100.00;96059.38;5035168;28;20226;-83
2022/01/31 09:28:51;;;;;;;8.60;5.67;;;;;;;3.27;100.00;96051.75;5046811;28;20519;-83
2022/01/31 09:31:21;;;;;;;9.03;6.60;;;;;;;3.29;100.00;96023.03;5034666;28;20222;-84
2022/01/31 09:33:48;;;;;;;9.60;6.03;;;;;;;3.23;100.00;96021.16;5033169;28;20234;-83
2022/01/31 09:36:16;;;;;;;7.97;5.97;;;;;;;3.18;100.00;96026.22;5043872;28;20202;-85
2022/01/31 09:38:43;;;;;;;10.67;6.30;;;;;;;3.18;100.00;95999.53;5051887;28;20289;-84
2022/01/31 09:41:15;;;;;;;11.73;6.80;;;;;;;3.15;100.00;96005.28;5036933;28;20209;-84
2022/01/31 09:44:02;;;;;;;9.47;6.73;;;;;;;3.18;100.00;95996.88;5053059;28;20206;-84
2022/01/31 09:49:23;;;;;;;10.83;7.57;;;;;;;3.21;100.00;96017.84;5039315;28;20202;-84
2022/01/31 09:51:51;;;;;;;13.83;9.27;;;;;;;3.27;100.00;96017.88;5030834;28;20202;-86
2022/01/31 09:54:18;;;;;;;15.83;11.50;;;;;;;3.21;100.00;96024.00;5060240;28;20224;-84
2022/01/31 09:56:47;;;;;;;10.80;7.13;;;;;;;3.20;100.00;96001.00;5030771;28;20221;-86
2022/01/31 09:59:16;;;;;;;9.67;7.03;;;;;;;3.21;100.00;95975.97;5033113;28;20268;-84
2022/01/31 10:01:47;;;;;;;9.77;7.57;;;;;;;3.22;100.00;95974.13;5050741;28;20268;-83
2022/01/31 10:04:18;;;;;;;9.50;6.67;;;;;;;3.23;100.00;95970.44;5046087;28;20206;-85
2022/01/31 10:06:47;;;;;;;9.93;7.23;;;;;;;3.27;100.00;95953.03;5026993;28;20242;-84
2022/01/31 10:09:17;;;;;;;16.33;10.53;;;;;;;3.25;100.00;95950.53;5050468;28;20204;-84
2022/01/31 10:11:49;;;;;;;11.93;9.20;;;;;;;3.25;100.00;95955.88;5053880;28;20248;-85
2022/01/31 10:17:12;;;;;;;11.73;8.13;;;;;;;3.31;100.00;95936.44;5060438;28;20241;-83
2022/01/31 10:19:44;;;;;;;12.30;7.87;;;;;;;3.28;100.00;95950.16;5029498;28;20210;-84
2022/01/31 10:22:14;;;;;;;11.20;8.17;;;;;;;3.28;100.00;95938.66;5050573;28;20202;-84
2022/01/31 10:24:43;;;;;;;12.10;8.10;;;;;;;3.32;100.00;95955.91;5033494;28;20305;-84
2022/01/31 10:27:13;;;;;;;34.80;19.20;;;;;;;3.30;100.00;95968.66;5043390;28;20203;-83
2022/01/31 10:29:41;;;;;;;24.97;13.93;;;;;;;3.25;100.00;95963.88;5032740;28;20291;-82
2022/01/31 10:32:12;;;;;;;12.27;8.30;;;;;;;3.21;100.00;95951.97;5046458;28;20207;-81
2022/01/31 10:34:48;;;;;;;15.47;9.40;;;;;;;3.18;100.00;95949.69;5063432;28;20214;-84
2022/01/31 10:37:18;;;;;;;11.77;8.67;;;;;;;3.22;100.00;95977.63;5037430;28;20499;-84
2022/01/31 10:45:55;;;;;;;13.07;8.47;;;;;;;3.29;100.00;95934.97;5045525;28;20289;-82
2022/01/31 10:54:06;;;;;;;10.50;7.47;;;;;;;3.34;100.00;95924.53;5052990;28;20209;-82
2022/01/31 10:56:39;;;;;;;10.23;7.83;;;;;;;3.29;100.00;95922.47;5038896;28;20219;-82
2022/01/31 10:59:09;;;;;;;16.53;8.47;;;;;;;3.29;100.00;95937.66;5047309;28;20207;-82
2022/01/31 11:01:38;;;;;;;10.10;7.37;;;;;;;3.27;100.00;95929.00;5046945;28;20218;-83
2022/01/31 11:04:10;;;;;;;9.03;6.73;;;;;;;3.27;100.00;95921.81;5048470;28;20230;-81
2022/01/31 11:06:40;;;;;;;9.60;6.30;;;;;;;3.30;100.00;95915.28;5030422;28;20320;-82
2022/01/31 11:09:10;;;;;;;12.50;8.60;;;;;;;3.36;100.00;95919.84;5051732;28;20202;-83
2022/01/31 11:11:41;;;;;;;14.23;9.37;;;;;;;3.25;100.00;95883.84;5057318;28;20238;-85
2022/01/31 11:14:10;;;;;;;18.20;10.83;;;;;;;3.27;100.00;95892.47;5032695;28;20273;-86
2022/01/31 11:16:38;;;;;;;14.57;9.03;;;;;;;3.25;100.00;95891.84;5043977;28;20215;-84
2022/01/31 11:19:09;;;;;;;11.70;8.37;;;;;;;3.18;100.00;95872.31;5047934;28;20198;-85
2022/01/31 11:21:38;;;;;;;12.47;8.60;;;;;;;3.12;100.00;95849.09;5039245;28;20241;-85
2022/01/31 11:24:17;;;;;;;11.83;8.33;;;;;;;3.19;100.00;95855.28;5039290;28;20219;-84
2022/01/31 11:26:48;;;;;;;10.77;7.73;;;;;;;3.08;100.00;95852.34;5045452;28;20503;-84
2022/01/31 11:29:16;;;;;;;13.60;8.20;;;;;;;3.02;100.00;95867.28;5044738;28;20261;-84
2022/01/31 11:31:44;;;;;;;13.30;8.30;;;;;;;3.00;100.00;95871.97;5045128;28;20255;-85
2022/01/31 11:34:13;;;;;;;12.93;8.57;;;;;;;3.02;100.00;95885.94;5041387;28;20206;-85
2022/01/31 11:36:43;;;;;;;17.77;9.93;;;;;;;3.08;100.00;95855.81;5054628;28;20209;-85
2022/01/31 11:39:12;;;;;;;10.17;7.43;;;;;;;3.02;100.00;95845.94;5049463;28;20225;-86
2022/01/31 11:41:44;;;;;;;10.33;7.67;;;;;;;3.06;100.00;95835.72;5035044;28;20244;-83
2022/01/31 11:44:18;;;;;;;10.67;7.17;;;;;;;3.04;100.00;95828.75;5060561;28;20213;-82
2022/01/31 11:46:46;;;;;;;16.93;8.73;;;;;;;3.05;100.00;95821.56;5040822;28;20217;-82
2022/01/31 11:49:15;;;;;;;11.73;7.40;;;;;;;3.06;100.00;95822.38;5049044;28;20199;-83
2022/01/31 11:52:03;;;;;;;10.87;7.77;;;;;;;3.05;100.00;95837.56;5045156;28;20250;-84
2022/01/31 11:54:30;;;;;;;12.90;8.43;;;;;;;3.06;100.00;95809.88;5053038;28;20272;-83
2022/01/31 11:56:57;;;;;;;16.43;9.07;;;;;;;3.04;100.00;95836.75;5034801;28;20202;-83
2022/01/31 11:59:26;;;;;;;14.07;9.10;;;;;;;3.03;100.00;95797.75;5050190;28;20249;-82